Time;durP1;ratioP1;P1;durP2;ratioP2;P2;SDS_P1;SDS_P2;PMS_P1;PMS_P2;Temp;Humidity;BMP_temperature;BMP_pressure;BME280_temperature;BME280_humidity;BME280_pressure;Samples;Min_cycle;Max_cycle;Signal;HPM_P1;HPM_P2
2021/12/16 00:03:17;;;;;;;8.43;4.93;;;;;;;1.88;100.00;97897.47;5022821;28;20229;-82
2021/12/16 00:06:08;;;;;;;7.93;5.20;;;;;;;1.87;100.00;97906.47;5037429;28;20232;-82
2021/12/16 00:08:39;;;;;;;9.17;5.50;;;;;;;1.88;100.00;97900.13;5019649;28;20217;-81
2021/12/16 00:11:18;;;;;;;8.47;5.40;;;;;;;1.85;100.00;97895.09;5024273;28;20210;-81
2021/12/16 00:31:05;;;;;;;10.27;5.30;;;;;;;1.89;100.00;97900.00;5023001;28;20211;-81
2021/12/16 00:33:36;;;;;;;9.77;5.23;;;;;;;1.89;100.00;97907.13;5025330;28;20206;-81
2021/12/16 00:36:05;;;;;;;9.23;5.40;;;;;;;1.89;100.00;97909.81;5028503;28;20213;-82
2021/12/16 00:38:33;;;;;;;8.40;5.50;;;;;;;1.92;100.00;97909.53;5021836;28;20240;-82
2021/12/16 00:41:01;;;;;;;7.87;4.80;;;;;;;1.91;100.00;97910.50;5028419;28;20213;-82
2021/12/16 00:43:35;;;;;;;9.40;5.70;;;;;;;1.87;100.00;97909.13;5023487;28;20226;-82
2021/12/16 00:46:16;;;;;;;7.27;4.83;;;;;;;1.88;100.00;97905.44;5027380;28;20249;-82
2021/12/16 00:49:19;;;;;;;7.40;5.03;;;;;;;1.86;100.00;97902.94;5023591;28;20202;-82
2021/12/16 00:54:33;;;;;;;10.20;6.30;;;;;;;1.87;100.00;97887.81;5025373;28;20293;-82
2021/12/16 00:57:05;;;;;;;10.60;5.30;;;;;;;1.85;100.00;97889.78;5021629;28;20202;-81
2021/12/16 00:59:37;;;;;;;9.93;5.70;;;;;;;1.83;100.00;97887.25;5022800;28;20248;-82
2021/12/16 01:02:22;;;;;;;10.57;5.53;;;;;;;1.90;100.00;97887.50;5025290;28;20257;-82
2021/12/16 01:08:00;;;;;;;8.60;5.30;;;;;;;1.90;100.00;97898.16;5015071;28;20238;-82
2021/12/16 01:36:09;;;;;;;11.37;6.00;;;;;;;1.86;100.00;97916.28;5022272;28;20278;-82
2021/12/16 01:47:38;;;;;;;8.67;5.00;;;;;;;1.89;100.00;97910.66;4976388;28;20211;-82
2021/12/16 01:50:12;;;;;;;10.97;6.30;;;;;;;1.87;100.00;97914.44;5017310;28;20213;-81
2021/12/16 01:55:29;;;;;;;10.23;5.63;;;;;;;1.81;100.00;97904.31;5018201;28;20214;-81
2021/12/16 01:58:00;;;;;;;10.77;5.90;;;;;;;1.82;100.00;97903.34;5028627;28;20206;-82
2021/12/16 02:00:42;;;;;;;10.07;5.70;;;;;;;1.82;100.00;97898.03;5016061;28;20205;-82
2021/12/16 02:03:09;;;;;;;10.37;6.20;;;;;;;1.77;100.00;97886.97;5028004;28;20324;-82
2021/12/16 02:08:33;;;;;;;10.10;6.27;;;;;;;1.85;100.00;97884.44;5021889;28;20202;-82
2021/12/16 02:11:27;;;;;;;15.07;7.23;;;;;;;1.90;100.00;97876.84;5023529;28;20225;-82
2021/12/16 02:36:38;;;;;;;15.43;6.60;;;;;;;1.97;100.00;97845.16;5013636;28;20233;-82
2021/12/16 02:39:12;;;;;;;11.37;6.00;;;;;;;1.93;100.00;97825.97;5023283;28;20212;-82
2021/12/16 02:41:41;;;;;;;10.40;6.10;;;;;;;1.92;100.00;97834.09;5017017;28;20269;-82
2021/12/16 02:44:25;;;;;;;10.33;5.80;;;;;;;1.88;100.00;97814.88;5022009;28;20319;-82
2021/12/16 02:49:44;;;;;;;11.23;6.17;;;;;;;1.97;100.00;97803.38;5024177;28;20315;-81
2021/12/16 02:52:12;;;;;;;9.40;5.43;;;;;;;1.93;100.00;97799.34;5031391;28;20284;-82
2021/12/16 02:54:41;;;;;;;10.07;6.43;;;;;;;2.00;100.00;97805.78;5024010;28;20209;-81
2021/12/16 02:57:09;;;;;;;12.30;6.23;;;;;;;1.99;100.00;97796.09;5024646;28;20205;-82
2021/12/16 02:59:37;;;;;;;11.17;6.03;;;;;;;1.98;100.00;97799.75;5026797;28;20217;-83
2021/12/16 03:02:10;;;;;;;9.53;5.63;;;;;;;2.01;100.00;97803.97;5022932;28;20202;-81
2021/12/16 03:04:43;;;;;;;9.43;5.23;;;;;;;2.05;100.00;97806.19;5030703;28;20215;-82
2021/12/16 03:07:12;;;;;;;7.87;5.07;;;;;;;2.04;100.00;97799.16;5031459;28;20305;-82
2021/12/16 03:12:44;;;;;;;7.90;5.00;;;;;;;2.07;100.00;97817.56;5014988;28;20219;-82
2021/12/16 03:15:23;;;;;;;8.10;5.03;;;;;;;2.06;100.00;97817.69;5022119;28;20202;-82
2021/12/16 03:17:57;;;;;;;8.20;4.97;;;;;;;2.01;100.00;97809.28;5026548;28;20210;-81
2021/12/16 03:20:35;;;;;;;7.97;5.03;;;;;;;2.01;100.00;97806.63;5025982;28;20259;-83
2021/12/16 03:23:18;;;;;;;7.30;4.57;;;;;;;2.01;100.00;97804.81;5030699;28;20221;-82
2021/12/16 03:26:03;;;;;;;5.83;4.10;;;;;;;1.98;100.00;97809.56;5023293;28;20233;-82
2021/12/16 03:28:53;;;;;;;6.73;4.60;;;;;;;1.97;100.00;97816.72;5040548;28;20206;-82
2021/12/16 03:31:57;;;;;;;7.10;4.90;;;;;;;2.02;100.00;97819.81;5046399;28;20257;-82
2021/12/16 03:34:42;;;;;;;8.23;5.37;;;;;;;2.02;100.00;97827.81;5024854;28;20273;-82
2021/12/16 03:37:14;;;;;;;9.00;5.50;;;;;;;2.05;100.00;97842.66;5028603;28;20213;-81
2021/12/16 03:39:45;;;;;;;8.13;5.20;;;;;;;2.07;100.00;97846.00;5027122;28;20215;-82
2021/12/16 03:42:16;;;;;;;8.07;5.60;;;;;;;2.10;100.00;97854.59;5019837;28;20233;-82
2021/12/16 03:44:53;;;;;;;8.60;4.77;;;;;;;2.13;100.00;97840.97;5024395;28;20230;-82
2021/12/16 03:47:27;;;;;;;7.50;4.87;;;;;;;2.10;100.00;97835.94;5028816;28;20265;-82
2021/12/16 03:49:56;;;;;;;8.37;5.47;;;;;;;2.12;100.00;97843.78;5031604;28;20198;-83
2021/12/16 03:52:24;;;;;;;11.00;6.27;;;;;;;2.12;100.00;97838.47;5019048;28;20199;-82
2021/12/16 03:54:55;;;;;;;9.73;6.13;;;;;;;2.10;100.00;97838.59;5027451;28;20206;-82
2021/12/16 03:57:30;;;;;;;9.93;6.00;;;;;;;2.11;100.00;97847.44;5033599;28;20269;-82
2021/12/16 03:59:57;;;;;;;10.47;6.17;;;;;;;2.14;100.00;97852.47;5027717;28;20270;-81
2021/12/16 04:02:43;;;;;;;9.43;6.10;;;;;;;2.14;100.00;97853.31;5044979;28;20206;-82
2021/12/16 04:05:14;;;;;;;12.10;6.10;;;;;;;2.16;100.00;97856.69;5023068;28;20228;-82
2021/12/16 04:07:45;;;;;;;10.53;5.90;;;;;;;2.13;100.00;97846.28;5025992;28;20237;-81
2021/12/16 04:10:32;;;;;;;8.97;5.90;;;;;;;2.23;100.00;97863.13;5021156;28;20202;-81
2021/12/16 04:13:04;;;;;;;8.87;6.37;;;;;;;2.22;100.00;97861.44;5022320;28;20203;-82
2021/12/16 04:15:31;;;;;;;11.60;6.30;;;;;;;2.24;100.00;97864.81;5021479;28;20210;-82
2021/12/16 04:17:59;;;;;;;10.87;6.27;;;;;;;2.27;100.00;97869.88;5018532;28;20206;-82
2021/12/16 04:20:27;;;;;;;10.90;6.60;;;;;;;2.27;100.00;97869.03;5019467;28;20238;-82
2021/12/16 04:22:56;;;;;;;11.57;6.63;;;;;;;2.28;100.00;97876.88;5028129;28;20194;-82
2021/12/16 04:25:27;;;;;;;10.37;6.07;;;;;;;2.28;100.00;97887.53;5023997;28;20203;-82
2021/12/16 04:27:59;;;;;;;10.93;6.57;;;;;;;2.24;100.00;97880.78;5018627;28;20213;-82
2021/12/16 04:30:30;;;;;;;8.47;5.60;;;;;;;2.23;100.00;97887.09;5026708;28;20217;-82
2021/12/16 04:32:58;;;;;;;9.07;6.10;;;;;;;2.20;100.00;97886.56;5018223;28;20207;-82
2021/12/16 04:35:29;;;;;;;10.67;6.33;;;;;;;2.26;100.00;97889.50;5018591;28;20211;-82
2021/12/16 04:37:57;;;;;;;9.70;6.30;;;;;;;2.24;100.00;97891.47;5027009;28;20230;-82
2021/12/16 04:40:28;;;;;;;9.40;6.10;;;;;;;2.19;100.00;97892.88;5015876;28;20199;-83
2021/12/16 04:43:01;;;;;;;10.70;6.00;;;;;;;2.12;100.00;97895.25;5027855;28;20284;-82
2021/12/16 04:45:37;;;;;;;9.60;6.13;;;;;;;2.13;100.00;97886.25;5023919;28;20222;-82
2021/12/16 04:48:06;;;;;;;11.20;6.50;;;;;;;2.09;100.00;97884.03;5020966;28;20217;-82
2021/12/16 04:50:39;;;;;;;10.90;6.57;;;;;;;2.06;100.00;97876.31;5014828;28;20398;-81
2021/12/16 04:53:08;;;;;;;9.87;6.00;;;;;;;2.06;100.00;97887.81;5017339;28;20207;-82
2021/12/16 04:55:38;;;;;;;8.50;5.80;;;;;;;2.01;100.00;97895.38;5018674;28;20241;-82
2021/12/16 04:58:06;;;;;;;10.40;6.20;;;;;;;2.02;100.00;97902.41;5024604;28;20305;-82
2021/12/16 05:00:33;;;;;;;10.90;6.67;;;;;;;2.00;100.00;97898.19;5017296;28;20203;-82
2021/12/16 05:03:20;;;;;;;8.20;5.43;;;;;;;2.04;100.00;97899.59;5018316;28;20203;-83
2021/12/16 05:05:48;;;;;;;10.50;5.83;;;;;;;2.02;100.00;97896.22;5023658;28;20217;-82
2021/12/16 05:08:16;;;;;;;9.60;5.80;;;;;;;2.07;100.00;97910.81;5023249;28;20209;-82
2021/12/16 05:10:50;;;;;;;8.90;5.70;;;;;;;2.13;100.00;97918.25;5027380;28;20204;-82
2021/12/16 05:13:22;;;;;;;9.20;6.60;;;;;;;2.12;100.00;97921.91;5016317;28;20199;-82
2021/12/16 05:15:50;;;;;;;11.47;6.73;;;;;;;2.11;100.00;97920.22;5020945;28;20203;-82
2021/12/16 05:18:25;;;;;;;9.27;5.97;;;;;;;2.04;100.00;97921.72;5025078;28;20209;-82
2021/12/16 05:20:58;;;;;;;10.57;6.83;;;;;;;2.08;100.00;97932.97;5027213;28;20210;-82
2021/12/16 05:26:18;;;;;;;9.97;6.63;;;;;;;2.08;100.00;97933.81;5029999;28;20346;-81
2021/12/16 05:29:00;;;;;;;13.47;7.80;;;;;;;2.05;100.00;97923.41;5022619;28;20206;-81
2021/12/16 05:31:30;;;;;;;11.60;6.80;;;;;;;2.12;100.00;97929.91;5021376;28;20205;-81
2021/12/16 05:34:02;;;;;;;11.70;7.37;;;;;;;2.11;100.00;97930.88;5027188;28;20204;-81
2021/12/16 05:36:30;;;;;;;13.23;7.13;;;;;;;2.12;100.00;97929.06;5023028;28;20209;-82
2021/12/16 05:38:58;;;;;;;9.67;6.37;;;;;;;2.07;100.00;97918.81;5024351;28;20272;-81
2021/12/16 05:41:28;;;;;;;9.77;6.17;;;;;;;2.00;100.00;97915.00;5023086;28;20473;-81
2021/12/16 05:43:58;;;;;;;10.37;6.77;;;;;;;2.00;100.00;97912.34;5020343;28;20223;-81
2021/12/16 05:46:27;;;;;;;11.30;6.50;;;;;;;1.92;100.00;97906.88;5021950;28;20198;-81
2021/12/16 05:49:01;;;;;;;11.60;7.20;;;;;;;1.92;100.00;97911.34;5026783;28;20240;-81
2021/12/16 05:51:44;;;;;;;11.60;6.67;;;;;;;1.90;100.00;97908.81;5025560;28;20211;-81
2021/12/16 05:54:13;;;;;;;11.50;7.17;;;;;;;1.89;100.00;97912.47;5023531;28;20278;-81
2021/12/16 05:56:48;;;;;;;9.93;6.77;;;;;;;1.94;100.00;97915.56;5022866;28;20202;-81
2021/12/16 05:59:19;;;;;;;13.23;7.60;;;;;;;1.86;100.00;97910.09;5038975;28;20200;-81
2021/12/16 06:01:51;;;;;;;12.40;7.20;;;;;;;1.83;100.00;97913.88;5022068;28;20291;-81
2021/12/16 06:04:25;;;;;;;12.90;8.20;;;;;;;1.86;100.00;97926.09;5023683;28;20213;-81
2021/12/16 06:06:56;;;;;;;11.23;6.90;;;;;;;1.83;100.00;97926.34;5019049;28;20257;-81
2021/12/16 06:09:23;;;;;;;11.80;7.37;;;;;;;1.87;100.00;97933.09;5017552;28;20207;-82
2021/12/16 06:11:54;;;;;;;10.07;6.93;;;;;;;1.81;100.00;97930.97;5018493;28;20292;-81
2021/12/16 06:14:26;;;;;;;13.60;8.00;;;;;;;1.91;100.00;97931.81;5017394;28;20210;-81
2021/12/16 06:22:51;;;;;;;13.37;7.93;;;;;;;1.97;100.00;97941.91;4994923;28;20301;-82
2021/12/16 06:28:07;;;;;;;11.03;7.00;;;;;;;2.03;100.00;97941.41;5025329;28;20344;-80
2021/12/16 06:30:39;;;;;;;12.63;8.40;;;;;;;2.04;100.00;97940.38;5033692;28;20217;-81
2021/12/16 06:33:09;;;;;;;11.10;7.07;;;;;;;2.05;100.00;97954.56;5050791;28;20282;-81
2021/12/16 06:35:37;;;;;;;12.00;7.47;;;;;;;2.07;100.00;97952.59;5033157;28;20214;-82
2021/12/16 06:38:09;;;;;;;10.53;6.57;;;;;;;2.03;100.00;97954.72;5032042;28;20205;-82
2021/12/16 06:40:48;;;;;;;14.00;7.20;;;;;;;2.04;100.00;97975.03;5025979;28;20255;-83
2021/12/16 06:43:38;;;;;;;11.50;7.20;;;;;;;2.15;100.00;97964.25;5037151;28;20337;-81
2021/12/16 06:46:11;;;;;;;13.03;7.40;;;;;;;2.25;100.00;97970.44;5025792;28;20230;-80
2021/12/16 06:48:41;;;;;;;11.47;7.60;;;;;;;2.32;100.00;97970.72;5033205;28;20213;-81
2021/12/16 06:51:14;;;;;;;10.93;6.53;;;;;;;2.35;100.00;97969.59;5022635;28;20293;-81
2021/12/16 06:53:50;;;;;;;10.40;6.27;;;;;;;2.36;100.00;97972.13;5038717;28;20264;-81
2021/12/16 06:56:23;;;;;;;11.50;6.90;;;;;;;2.30;100.00;97977.19;5031989;28;20210;-80
2021/12/16 06:59:02;;;;;;;10.23;7.00;;;;;;;2.22;100.00;97978.69;5025462;28;20206;-82
2021/12/16 07:01:38;;;;;;;10.40;7.10;;;;;;;2.19;100.00;97970.16;5025979;28;20316;-81
2021/12/16 07:04:07;;;;;;;12.73;7.47;;;;;;;2.12;100.00;97979.69;5022567;28;20218;-82
2021/12/16 07:06:38;;;;;;;13.23;7.70;;;;;;;2.11;100.00;97981.50;5029914;28;20280;-81
2021/12/16 07:09:13;;;;;;;12.53;7.00;;;;;;;2.06;100.00;97980.22;5023884;28;20278;-81
2021/12/16 07:11:41;;;;;;;13.17;7.13;;;;;;;2.09;100.00;97991.47;5027934;28;20205;-82
2021/12/16 07:14:13;;;;;;;11.33;7.20;;;;;;;2.02;100.00;98001.00;5027235;28;20233;-82
2021/12/16 07:16:41;;;;;;;14.33;8.57;;;;;;;2.04;100.00;98003.53;5028447;28;20318;-82
2021/12/16 07:19:09;;;;;;;21.80;11.00;;;;;;;1.98;100.00;97996.06;5036257;28;20213;-82
2021/12/16 07:21:38;;;;;;;14.47;8.37;;;;;;;1.90;100.00;97996.72;5026389;28;20210;-82
2021/12/16 07:24:10;;;;;;;12.93;7.60;;;;;;;1.88;100.00;98002.19;5019046;28;20220;-81
2021/12/16 07:26:38;;;;;;;12.17;8.27;;;;;;;1.91;100.00;98001.09;5039073;28;20268;-82
2021/12/16 07:29:07;;;;;;;14.73;7.63;;;;;;;1.94;100.00;98006.16;5028771;28;20205;-82
2021/12/16 07:31:36;;;;;;;11.40;6.90;;;;;;;1.97;100.00;97989.03;5025321;28;20212;-82
2021/12/16 07:34:04;;;;;;;10.87;7.07;;;;;;;2.01;100.00;97996.63;5023702;28;20211;-82
2021/12/16 07:36:33;;;;;;;11.53;7.50;;;;;;;1.95;100.00;97986.53;5044193;28;20213;-81
2021/12/16 07:39:06;;;;;;;12.03;7.73;;;;;;;1.93;100.00;97987.63;5018500;28;20226;-82
2021/12/16 07:41:33;;;;;;;11.87;7.93;;;;;;;1.89;100.00;97984.38;5032173;28;20219;-82
2021/12/16 07:44:10;;;;;;;12.03;7.37;;;;;;;1.89;100.00;97997.72;5032326;28;20502;-82
2021/12/16 07:46:38;;;;;;;12.73;7.93;;;;;;;1.90;100.00;98000.25;5020177;28;20301;-82
2021/12/16 07:49:06;;;;;;;13.40;7.70;;;;;;;1.89;100.00;98006.53;5031818;28;20214;-82
2021/12/16 07:51:33;;;;;;;13.30;8.20;;;;;;;1.89;100.00;98003.03;5031339;28;20212;-82
2021/12/16 07:54:02;;;;;;;11.47;7.63;;;;;;;1.87;100.00;98005.81;5039003;28;20206;-82
2021/12/16 07:56:30;;;;;;;12.57;7.67;;;;;;;1.89;100.00;98019.88;5021494;28;20326;-81
2021/12/16 07:58:57;;;;;;;13.17;7.37;;;;;;;1.88;100.00;98017.34;5021210;28;20207;-81
2021/12/16 08:01:24;;;;;;;11.67;7.23;;;;;;;1.88;100.00;98026.16;5015954;28;20203;-82
2021/12/16 08:03:51;;;;;;;11.57;6.57;;;;;;;1.93;100.00;98014.28;5024658;28;20210;-82
2021/12/16 08:06:23;;;;;;;11.83;7.27;;;;;;;1.96;100.00;98024.66;5029420;28;20245;-82
2021/12/16 08:08:51;;;;;;;14.43;7.33;;;;;;;1.95;100.00;98018.50;5039318;28;20290;-82
2021/12/16 08:11:20;;;;;;;11.03;6.87;;;;;;;1.93;100.00;98011.63;5023308;28;20205;-83
2021/12/16 08:13:47;;;;;;;11.90;7.13;;;;;;;2.01;100.00;98020.63;5027418;28;20204;-82
2021/12/16 08:16:14;;;;;;;11.60;6.93;;;;;;;2.07;100.00;98013.88;5019247;28;20210;-82
2021/12/16 08:18:41;;;;;;;11.73;7.13;;;;;;;2.06;100.00;98018.38;5043508;28;20209;-82
2021/12/16 08:21:08;;;;;;;11.57;7.17;;;;;;;2.08;100.00;98024.41;5034125;28;20288;-82
2021/12/16 08:23:35;;;;;;;11.07;6.67;;;;;;;2.10;100.00;98014.47;5021280;28;20294;-82
2021/12/16 08:26:03;;;;;;;9.77;6.93;;;;;;;2.13;100.00;98018.66;5021646;28;20234;-82
2021/12/16 08:28:32;;;;;;;14.23;7.90;;;;;;;2.11;100.00;98017.97;5024373;28;20210;-82
2021/12/16 08:30:59;;;;;;;12.57;7.10;;;;;;;2.21;100.00;98025.00;5019284;28;20376;-82
2021/12/16 08:33:26;;;;;;;10.43;7.30;;;;;;;2.25;100.00;98020.25;5026548;28;20301;-81
2021/12/16 08:35:56;;;;;;;12.90;8.40;;;;;;;2.31;100.00;98030.34;5017510;28;20202;-81
2021/12/16 08:38:26;;;;;;;10.53;6.50;;;;;;;2.30;100.00;98035.84;5018332;28;20205;-81
2021/12/16 08:40:58;;;;;;;11.33;6.70;;;;;;;2.25;100.00;98036.22;5022326;28;20242;-82
2021/12/16 08:43:26;;;;;;;12.10;6.90;;;;;;;2.20;100.00;98035.81;5026901;28;20237;-82
2021/12/16 08:45:55;;;;;;;11.63;7.47;;;;;;;2.18;100.00;98041.28;5041006;28;20218;-82
2021/12/16 08:48:23;;;;;;;10.33;6.97;;;;;;;2.10;100.00;98033.13;5026744;28;20217;-82
2021/12/16 08:50:51;;;;;;;11.97;7.80;;;;;;;2.10;100.00;98038.44;5024256;28;20198;-81
2021/12/16 08:53:23;;;;;;;11.53;6.87;;;;;;;2.09;100.00;98036.75;5018201;28;20214;-83
2021/12/16 08:55:53;;;;;;;12.07;6.93;;;;;;;2.15;100.00;98038.03;5019965;28;20205;-82
2021/12/16 08:58:21;;;;;;;9.37;6.63;;;;;;;2.24;100.00;98040.72;5015630;28;20207;-83
2021/12/16 09:00:54;;;;;;;11.40;7.10;;;;;;;2.24;100.00;98038.06;5022927;28;20297;-82
2021/12/16 09:03:22;;;;;;;12.37;6.67;;;;;;;2.24;100.00;98050.53;5026041;28;20296;-83
2021/12/16 09:05:50;;;;;;;10.37;6.73;;;;;;;2.25;100.00;98052.22;5025334;28;20240;-82
2021/12/16 09:08:17;;;;;;;11.30;6.70;;;;;;;2.23;100.00;98047.03;5038933;28;20214;-83
2021/12/16 09:10:44;;;;;;;11.27;7.00;;;;;;;2.23;100.00;98051.50;5027706;28;20224;-83
2021/12/16 09:13:14;;;;;;;11.93;7.03;;;;;;;2.18;100.00;98040.44;5026593;28;20215;-82
2021/12/16 09:15:46;;;;;;;11.47;6.93;;;;;;;2.25;100.00;98046.88;5027703;28;20200;-82
2021/12/16 09:18:17;;;;;;;11.47;7.00;;;;;;;2.23;100.00;98048.84;5017935;28;20293;-82
2021/12/16 09:20:46;;;;;;;11.77;7.27;;;;;;;2.27;100.00;98059.13;5019698;28;20224;-82
2021/12/16 09:23:14;;;;;;;13.47;7.97;;;;;;;2.23;100.00;98055.03;5024918;28;20213;-82
2021/12/16 09:25:44;;;;;;;15.47;7.97;;;;;;;2.28;100.00;98063.47;5026809;28;20232;-82
2021/12/16 09:28:12;;;;;;;14.23;7.50;;;;;;;2.22;100.00;98053.31;5039758;28;20297;-82
2021/12/16 09:30:39;;;;;;;12.73;7.93;;;;;;;2.27;100.00;98067.09;5023834;28;20201;-82
2021/12/16 09:33:13;;;;;;;12.87;7.53;;;;;;;2.27;100.00;98068.94;5023724;28;20238;-82
2021/12/16 09:35:41;;;;;;;13.03;7.20;;;;;;;2.25;100.00;98069.06;5026632;28;20214;-82
2021/12/16 09:38:12;;;;;;;10.80;6.77;;;;;;;2.23;100.00;98065.69;5018328;28;20234;-81
2021/12/16 09:40:47;;;;;;;12.47;7.00;;;;;;;2.25;100.00;98069.06;5023877;28;20237;-82
2021/12/16 09:43:14;;;;;;;11.80;6.63;;;;;;;2.20;100.00;98070.47;5024430;28;20204;-82
2021/12/16 09:45:41;;;;;;;12.40;7.10;;;;;;;2.23;100.00;98071.00;5023962;28;20225;-82
2021/12/16 09:48:09;;;;;;;12.93;7.37;;;;;;;2.26;100.00;98073.41;5027966;28;20297;-82
2021/12/16 09:50:36;;;;;;;12.20;7.70;;;;;;;2.24;100.00;98067.38;5031740;28;20211;-82
2021/12/16 09:53:05;;;;;;;12.03;7.17;;;;;;;2.28;100.00;98078.63;5023179;28;20223;-82
2021/12/16 09:55:34;;;;;;;12.13;7.43;;;;;;;2.28;100.00;98076.78;5018044;28;20217;-82
2021/12/16 09:58:03;;;;;;;12.13;6.67;;;;;;;2.33;100.00;98081.69;5018050;28;20271;-82
2021/12/16 10:00:31;;;;;;;12.13;7.93;;;;;;;2.33;100.00;98075.53;5021666;28;20220;-82
2021/12/16 10:03:00;;;;;;;13.83;7.50;;;;;;;2.36;100.00;98067.25;5021632;28;20195;-81
2021/12/16 10:05:29;;;;;;;12.10;7.27;;;;;;;2.45;100.00;98069.13;5021121;28;20251;-81
2021/12/16 10:07:56;;;;;;;13.00;7.83;;;;;;;2.45;100.00;98069.13;5036753;28;20256;-82
2021/12/16 10:10:26;;;;;;;14.57;8.90;;;;;;;2.46;100.00;98060.13;5020808;28;20210;-83
2021/12/16 10:12:59;;;;;;;14.90;9.73;;;;;;;2.44;100.00;98049.59;5019184;28;20210;-82
2021/12/16 10:18:17;;;;;;;13.83;7.70;;;;;;;2.43;100.00;98050.56;5026128;28;20205;-82
2021/12/16 10:20:51;;;;;;;12.50;8.17;;;;;;;2.45;100.00;98042.44;5019901;28;20253;-82
2021/12/16 10:23:21;;;;;;;12.97;8.00;;;;;;;2.47;100.00;98045.78;5021811;28;20202;-82
2021/12/16 10:25:50;;;;;;;11.67;7.53;;;;;;;2.42;100.00;98043.56;5021273;28;20228;-82
2021/12/16 10:28:23;;;;;;;12.57;7.20;;;;;;;2.33;100.00;98039.06;5026329;28;20223;-82
2021/12/16 10:30:55;;;;;;;12.77;7.10;;;;;;;2.32;100.00;98039.19;5025207;28;20210;-82
2021/12/16 10:33:27;;;;;;;11.97;6.83;;;;;;;2.39;100.00;98048.31;5018060;28;20220;-82
2021/12/16 10:36:08;;;;;;;12.97;7.77;;;;;;;2.35;100.00;98044.25;5015967;28;20229;-82
2021/12/16 10:38:38;;;;;;;12.03;7.57;;;;;;;2.36;100.00;98043.28;5022461;28;20238;-82
2021/12/16 10:41:07;;;;;;;12.83;7.77;;;;;;;2.40;100.00;98053.50;5020184;28;20296;-82
2021/12/16 10:43:40;;;;;;;13.53;7.97;;;;;;;2.37;100.00;98053.81;5026432;28;20218;-82
2021/12/16 10:46:09;;;;;;;12.57;7.20;;;;;;;2.39;100.00;98053.63;5024007;28;20237;-81
2021/12/16 10:48:39;;;;;;;16.20;7.90;;;;;;;2.38;100.00;98050.16;5021432;28;20238;-83
2021/12/16 10:51:19;;;;;;;13.20;7.80;;;;;;;2.42;100.00;98054.22;5033898;28;20248;-82
2021/12/16 10:54:03;;;;;;;16.27;8.67;;;;;;;2.46;100.00;98052.97;5045204;28;20205;-82
2021/12/16 10:56:37;;;;;;;16.47;8.30;;;;;;;2.52;100.00;98047.09;5018410;28;20208;-82
2021/12/16 10:59:09;;;;;;;13.97;8.17;;;;;;;2.65;100.00;98047.66;5020369;28;20217;-81
2021/12/16 11:01:47;;;;;;;12.43;7.87;;;;;;;2.69;100.00;98053.56;5020914;28;20302;-82
2021/12/16 11:04:19;;;;;;;11.83;6.80;;;;;;;2.67;100.00;98059.03;5024463;28;20257;-82
2021/12/16 11:06:50;;;;;;;12.23;7.50;;;;;;;2.62;100.00;98055.09;5018778;28;20266;-82
2021/12/16 11:09:28;;;;;;;12.53;7.57;;;;;;;2.53;100.00;98056.78;5025263;28;20241;-82
2021/12/16 11:12:15;;;;;;;12.80;7.63;;;;;;;2.47;100.00;98053.78;5025668;28;20203;-82
2021/12/16 11:14:47;;;;;;;13.53;8.07;;;;;;;2.51;100.00;98057.88;5024824;28;20209;-81
2021/12/16 11:17:17;;;;;;;14.33;8.00;;;;;;;2.60;100.00;98062.38;5019142;28;20199;-81
2021/12/16 11:19:48;;;;;;;11.47;6.77;;;;;;;2.63;100.00;98062.13;5019727;28;20210;-81
2021/12/16 11:22:18;;;;;;;12.30;6.80;;;;;;;2.56;100.00;98058.31;5012998;28;20227;-81
2021/12/16 11:24:46;;;;;;;13.70;7.57;;;;;;;2.52;100.00;98056.91;5027761;28;20229;-80
2021/12/16 11:27:27;;;;;;;11.40;7.17;;;;;;;2.55;100.00;98056.66;5018235;28;20223;-80
2021/12/16 11:29:57;;;;;;;13.87;8.23;;;;;;;2.62;100.00;98055.09;5021608;28;20233;-81
2021/12/16 11:32:44;;;;;;;11.97;7.47;;;;;;;2.66;100.00;98061.81;5026444;28;20199;-82
2021/12/16 11:35:31;;;;;;;12.93;7.53;;;;;;;2.52;100.00;98046.25;5020777;28;20219;-81
2021/12/16 11:38:00;;;;;;;13.23;8.00;;;;;;;2.51;100.00;98041.88;5015726;28;20243;-81
2021/12/16 11:40:27;;;;;;;12.40;7.43;;;;;;;2.45;100.00;98032.63;5019594;28;20206;-80
2021/12/16 11:43:03;;;;;;;11.17;6.73;;;;;;;2.49;100.00;98033.19;5026663;28;20210;-81
2021/12/16 11:45:35;;;;;;;12.40;7.23;;;;;;;2.45;100.00;98027.28;5017199;28;20218;-81
2021/12/16 11:48:02;;;;;;;14.23;7.83;;;;;;;2.51;100.00;98032.06;5021724;28;20211;-80
2021/12/16 11:50:37;;;;;;;13.80;7.47;;;;;;;2.55;100.00;98040.63;5027639;28;20199;-80
2021/12/16 11:53:05;;;;;;;12.17;6.93;;;;;;;2.53;100.00;98019.44;5017806;28;20215;-81
2021/12/16 11:55:36;;;;;;;12.07;7.57;;;;;;;2.53;100.00;98047.94;5021500;28;20257;-81
2021/12/16 11:58:06;;;;;;;11.27;6.87;;;;;;;2.49;100.00;98041.19;5015329;28;20223;-81
2021/12/16 12:00:38;;;;;;;13.87;7.73;;;;;;;2.49;100.00;98050.00;5022947;28;20206;-81
2021/12/16 12:03:08;;;;;;;12.00;6.80;;;;;;;2.57;100.00;98046.66;5018667;28;20211;-81
2021/12/16 12:05:40;;;;;;;11.40;7.27;;;;;;;2.51;100.00;98042.72;5020469;28;20233;-81
2021/12/16 12:08:09;;;;;;;12.83;7.47;;;;;;;2.49;100.00;98039.34;5019281;28;20233;-80
2021/12/16 12:10:38;;;;;;;13.00;7.70;;;;;;;2.55;100.00;98040.63;5022666;28;20233;-81
2021/12/16 12:13:07;;;;;;;14.60;7.90;;;;;;;2.57;100.00;98035.97;5027798;28;20208;-81
2021/12/16 12:15:51;;;;;;;11.73;7.27;;;;;;;2.67;100.00;98026.16;5015743;28;20195;-81
2021/12/16 12:18:32;;;;;;;15.17;8.33;;;;;;;2.81;100.00;98027.56;5027654;28;20215;-80
2021/12/16 12:21:18;;;;;;;16.13;8.43;;;;;;;2.82;100.00;98032.75;5023106;28;20211;-80
2021/12/16 12:23:46;;;;;;;16.03;8.00;;;;;;;2.85;100.00;98028.97;5015648;28;20229;-80
2021/12/16 12:26:16;;;;;;;12.80;7.87;;;;;;;2.84;100.00;98032.63;5014929;28;20230;-80
2021/12/16 12:28:45;;;;;;;12.60;7.73;;;;;;;2.83;100.00;98028.28;5012701;28;20206;-81
2021/12/16 12:31:18;;;;;;;13.67;7.60;;;;;;;2.88;100.00;98032.22;5014242;28;20211;-81
2021/12/16 12:33:45;;;;;;;12.37;7.30;;;;;;;2.91;100.00;98029.25;5020878;28;20229;-80
2021/12/16 12:36:16;;;;;;;12.47;7.57;;;;;;;2.97;100.00;98028.72;5021014;28;20262;-81
2021/12/16 12:38:43;;;;;;;12.97;7.10;;;;;;;2.99;100.00;98039.22;5026285;28;20253;-81
2021/12/16 12:41:11;;;;;;;13.73;7.50;;;;;;;2.93;100.00;98035.28;5023652;28;20200;-81
2021/12/16 12:43:38;;;;;;;11.80;6.77;;;;;;;2.87;100.00;98037.69;5023539;28;20210;-81
2021/12/16 12:46:07;;;;;;;11.43;7.03;;;;;;;2.82;100.00;98024.75;5019449;28;20230;-81
2021/12/16 12:48:39;;;;;;;12.53;7.47;;;;;;;2.89;100.00;98031.22;5023537;28;20226;-81
2021/12/16 12:51:07;;;;;;;15.27;7.07;;;;;;;2.92;100.00;98030.94;5018774;28;20212;-81
2021/12/16 12:53:36;;;;;;;11.03;6.90;;;;;;;2.92;100.00;98024.75;5017705;28;20199;-81
2021/12/16 12:56:13;;;;;;;10.40;6.63;;;;;;;2.92;100.00;98012.25;5014980;28;20211;-79
2021/12/16 12:58:59;;;;;;;11.87;7.00;;;;;;;2.96;100.00;98016.34;5021233;28;20226;-81
2021/12/16 13:01:44;;;;;;;11.90;6.77;;;;;;;3.01;100.00;98022.09;5021362;28;20235;-81
2021/12/16 13:04:16;;;;;;;11.70;7.10;;;;;;;3.01;100.00;98018.56;5014982;28;20239;-81
2021/12/16 13:06:57;;;;;;;11.00;6.80;;;;;;;3.07;100.00;98017.16;5020728;28;20311;-82
2021/12/16 13:09:34;;;;;;;10.27;6.80;;;;;;;3.10;100.00;98017.72;5025124;28;20245;-82
2021/12/16 13:12:05;;;;;;;11.43;6.60;;;;;;;3.06;100.00;98020.84;5014741;28;20242;-81
2021/12/16 13:14:47;;;;;;;12.37;7.00;;;;;;;3.02;100.00;98020.25;5014327;28;20199;-81
2021/12/16 13:28:40;;;;;;;11.10;6.63;;;;;;;3.12;100.00;98041.59;5022232;28;20222;-82
2021/12/16 13:31:29;;;;;;;11.73;6.70;;;;;;;3.14;100.00;98047.66;5022359;28;20202;-81
2021/12/16 13:33:58;;;;;;;10.30;7.00;;;;;;;3.17;100.00;98044.66;5014081;28;20274;-81
2021/12/16 13:36:44;;;;;;;12.43;6.83;;;;;;;3.15;100.00;98028.78;5019268;28;20207;-81
2021/12/16 13:39:15;;;;;;;10.90;6.93;;;;;;;3.18;100.00;98041.88;5039816;28;20213;-81
2021/12/16 13:41:58;;;;;;;11.90;6.97;;;;;;;3.22;100.00;98047.78;5024158;28;20245;-82
2021/12/16 13:44:45;;;;;;;13.87;7.70;;;;;;;3.18;100.00;98041.03;5015460;28;20235;-81
2021/12/16 13:47:24;;;;;;;14.20;7.77;;;;;;;3.17;100.00;98039.34;5020891;28;20253;-81
2021/12/16 13:59:13;;;;;;;14.33;8.33;;;;;;;3.20;100.00;98033.72;5029655;28;20208;-81